WIBB Airport Information

Runway Information
Runway 18 Length 7360 ft width 98 ft
Elevation 90 ft Threshold 0 ft Heading 182
Runway 36 Length 7360 ft Width 98 ft
Elevation 87 ft Threshold 0 ft Heading 2
Airport Frequencies
Type APP Name PEKANBARU Frequency 120.8 MHZ
Type TWR Name SYARIF TWR Frequency 118.1 MHZ
Airport Navaids
Type NDB Name Pekanbaru Frequency 350 KHZ
Type VOR-DME Name Pekanbaru Frequency 112100 KHZ
Airport Weather Information & NOTAM
ADDS - METARS form results

(2324 UTC 24 January 2022)
Data provider http://aviationweather.gov/metar/data/
 
METAR text: WIBB 242300Z 00000KT 7000 FEW015 24/24 Q1007
Conditions at: WIBB (PAKANBARU/SIMPAN, ID) observed 2300 UTC 24 January 2022
Temperature: 24.0°C (75°F)
Dewpoint: 24.0°C (75°F) [RH = 100%]
Pressure (altimeter): 29.73 inches Hg (1007.0 mb)
Winds: calm
Visibility: 4 miles ( 7 km)
Ceiling: at least 12,000 feet AGL
Clouds: few clouds at 1500 feet AGL
Weather: no significant weather observed at this time

METAR text: WIBB 242230Z 00000KT 7000 FEW014 24/24 Q1007
Conditions at: WIBB (PAKANBARU/SIMPAN, ID) observed 2230 UTC 24 January 2022
Temperature: 24.0°C (75°F)
Dewpoint: 24.0°C (75°F) [RH = 100%]
Pressure (altimeter): 29.73 inches Hg (1007.0 mb)
Winds: calm
Visibility: 4 miles ( 7 km)
Ceiling: at least 12,000 feet AGL
Clouds: few clouds at 1400 feet AGL
Weather: no significant weather observed at this time